Lontzen, Belgium
Current Conditions -  °F | °C
As of 11:50 PM on Wednesday 22 Oct 2014 (Local Time) from EBLB Reporting Station
Broken Clouds Broken Clouds  
Wind Chill: 37°   Ceiling: 4400
Heat Index: 43°   Visibility: 4mi
Dew Point: 41°   Wind: 9mph
Humidity: 93%   Direction: 300°WNW
Pressure: 30.21"   Gusts: NA
Location:  50.68°N, 6.01°E
Report Text: EBLB 222150Z AUTO 30008KT 7000 FEW005/// SCT025/// BKN044/// 06/05 Q1023 WHT
Loading
Personal Weather Stations






























Interactive Weather Map
Tropical Storm Tracking
New forecast layout! Learn more

10-Day Weather Forecast

Advertisements
Track Severe Weather on mobile